createdAt,value
2022-09-21T00:01:47.050Z,11.67
2022-09-21T00:06:49.649Z,11.48
2022-09-21T00:11:56.358Z,11.44
2022-09-21T00:17:02.128Z,11.43
2022-09-21T00:22:04.696Z,11.42
2022-09-21T00:27:07.666Z,11.38
2022-09-21T00:32:11.559Z,11.39
2022-09-21T00:37:14.188Z,11.45
2022-09-21T00:42:20.031Z,11.40
2022-09-21T00:47:28.687Z,11.34
2022-09-21T00:52:35.138Z,11.40
2022-09-21T00:57:38.883Z,11.48
2022-09-21T01:02:43.395Z,11.55
2022-09-21T01:07:48.628Z,11.58
2022-09-21T01:13:01.876Z,11.64
2022-09-21T01:18:13.501Z,11.64
2022-09-21T01:23:43.414Z,11.59
2022-09-21T01:29:12.728Z,11.57
2022-09-21T01:34:23.720Z,11.59
2022-09-21T01:39:28.294Z,11.37
2022-09-21T01:44:35.444Z,11.27
2022-09-21T01:49:42.150Z,11.36
2022-09-21T01:54:48.748Z,11.41
2022-09-21T01:59:55.228Z,11.54
2022-09-21T02:04:58.847Z,11.57
2022-09-21T02:10:02.935Z,11.58
2022-09-21T02:15:08.479Z,11.60
2022-09-21T02:20:20.379Z,11.49
2022-09-21T02:25:40.472Z,11.40
2022-09-21T02:30:54.845Z,10.71
2022-09-21T02:36:05.844Z,11.10
2022-09-21T02:41:17.821Z,11.24
2022-09-21T02:46:27.671Z,11.03
2022-09-21T02:51:32.853Z,11.23
2022-09-21T02:56:36.613Z,11.16
2022-09-21T03:01:42.392Z,11.07
2022-09-21T03:06:44.966Z,11.16
2022-09-21T03:11:47.958Z,11.14
2022-09-21T03:16:52.304Z,11.04
2022-09-21T03:21:55.484Z,11.05
2022-09-21T03:26:58.250Z,10.93
2022-09-21T03:32:02.568Z,10.96
2022-09-21T03:37:06.998Z,10.96
2022-09-21T03:42:10.520Z,10.90
2022-09-21T03:47:14.402Z,10.83
2022-09-21T03:52:16.945Z,10.67
2022-09-21T03:57:19.510Z,10.74
2022-09-21T04:02:23.487Z,10.43
2022-09-21T04:07:26.190Z,10.64
2022-09-21T04:12:29.022Z,10.56
2022-09-21T04:17:32.899Z,10.46
2022-09-21T04:22:41.158Z,10.52
2022-09-21T04:27:45.794Z,10.51
2022-09-21T04:32:49.668Z,10.51
2022-09-21T04:37:55.646Z,10.51
2022-09-21T04:42:58.552Z,10.56
2022-09-21T04:48:02.990Z,10.57
2022-09-21T04:53:05.875Z,10.54
2022-09-21T04:58:08.427Z,10.42
2022-09-21T05:03:12.345Z,10.40
2022-09-21T05:08:15.631Z,10.46
2022-09-21T05:13:19.906Z,10.45
2022-09-21T05:18:23.841Z,10.40
2022-09-21T05:23:29.450Z,10.17
2022-09-21T05:28:35.526Z,10.16
2022-09-21T05:33:49.353Z,10.20
2022-09-21T05:38:52.448Z,10.23
2022-09-21T05:43:56.217Z,10.27
2022-09-21T05:49:06.842Z,10.34
2022-09-21T05:54:14.624Z,10.25
2022-09-21T05:59:33.796Z,10.41
2022-09-21T06:04:38.360Z,10.48
2022-09-21T06:09:43.211Z,10.58
2022-09-21T06:14:45.975Z,10.61
2022-09-21T06:19:49.885Z,10.67
2022-09-21T06:24:52.899Z,10.67
2022-09-21T06:29:55.826Z,10.64
2022-09-21T06:34:59.757Z,10.82
2022-09-21T06:40:02.733Z,10.95
2022-09-21T06:45:06.099Z,11.06
2022-09-21T06:50:10.432Z,11.16
2022-09-21T06:55:13.478Z,11.32
2022-09-21T07:00:16.598Z,11.41
2022-09-21T07:05:20.487Z,11.58
2022-09-21T07:10:23.040Z,11.76
2022-09-21T07:15:28.949Z,11.90
2022-09-21T07:20:32.833Z,12.13
2022-09-21T07:25:35.376Z,12.39
2022-09-21T07:30:38.442Z,12.61
2022-09-21T07:35:52.057Z,12.78
2022-09-21T07:40:54.790Z,12.95
2022-09-21T07:45:57.960Z,13.15
2022-09-21T07:51:06.161Z,13.31
2022-09-21T07:56:10.917Z,13.36
2022-09-21T08:01:13.795Z,13.34
2022-09-21T08:06:17.966Z,13.35
2022-09-21T08:11:22.375Z,13.55
2022-09-21T08:16:25.293Z,13.62
2022-09-21T08:21:29.478Z,13.64
2022-09-21T08:26:33.811Z,13.81
2022-09-21T08:31:36.581Z,13.87
2022-09-21T08:36:40.888Z,13.99
2022-09-21T08:41:58.708Z,14.09
2022-09-21T08:47:07.050Z,14.21
2022-09-21T08:52:16.334Z,14.32
2022-09-21T08:57:21.234Z,14.56
2022-09-21T09:02:38.444Z,14.61
2022-09-21T09:08:02.926Z,14.68
2022-09-21T09:13:22.190Z,14.88
2022-09-21T09:18:34.390Z,15.12
2022-09-21T09:23:44.423Z,15.17
2022-09-21T09:28:53.312Z,15.15
2022-09-21T09:34:02.441Z,15.17
2022-09-21T09:39:12.683Z,15.09
2022-09-21T09:44:38.782Z,15.28
2022-09-21T09:49:53.524Z,15.41
2022-09-21T09:54:57.476Z,15.60
2022-09-21T10:00:03.893Z,15.25
2022-09-21T10:05:22.052Z,15.96
2022-09-21T10:10:32.815Z,15.99
2022-09-21T10:15:43.102Z,16.12
2022-09-21T10:20:58.247Z,16.27
2022-09-21T10:26:05.102Z,16.31
2022-09-21T10:31:18.736Z,16.41
2022-09-21T10:36:28.802Z,16.44
2022-09-21T10:41:33.220Z,16.49
2022-09-21T10:46:36.826Z,16.53
2022-09-21T10:51:39.608Z,16.52
2022-09-21T10:56:54.442Z,16.58
2022-09-21T11:01:58.991Z,16.59
2022-09-21T11:07:08.936Z,16.53
2022-09-21T11:12:33.919Z,16.56
2022-09-21T11:17:42.113Z,16.43
2022-09-21T11:22:57.238Z,16.37
2022-09-21T11:28:09.984Z,16.38
2022-09-21T11:33:27.690Z,16.45
2022-09-21T11:38:47.047Z,16.48
2022-09-21T11:44:10.014Z,16.23
2022-09-21T11:49:38.666Z,16.06
2022-09-21T11:54:58.454Z,16.22
2022-09-21T12:00:15.271Z,16.33
2022-09-21T12:05:23.724Z,16.17
2022-09-21T12:10:40.562Z,16.13
2022-09-21T12:15:50.435Z,16.24
2022-09-21T12:21:05.288Z,16.37
2022-09-21T12:26:11.306Z,16.46
2022-09-21T12:31:21.603Z,16.52
2022-09-21T12:36:29.089Z,16.56
2022-09-21T12:41:40.743Z,16.64
2022-09-21T12:46:52.920Z,16.69
2022-09-21T12:52:00.396Z,16.74
2022-09-21T12:57:29.724Z,16.95
2022-09-21T13:02:42.681Z,17.63
2022-09-21T13:08:06.339Z,18.56
2022-09-21T13:13:20.204Z,19.24
2022-09-21T13:18:33.769Z,19.40
2022-09-21T13:23:41.890Z,19.10
2022-09-21T13:29:06.518Z,18.72
2022-09-21T13:34:25.156Z,18.00
2022-09-21T13:39:28.059Z,18.33
2022-09-21T13:44:43.814Z,18.46
2022-09-21T13:49:54.871Z,18.45
2022-09-21T13:55:04.006Z,18.41
2022-09-21T14:00:34.821Z,18.28
2022-09-21T14:05:43.719Z,17.86
2022-09-21T14:11:00.339Z,17.88
2022-09-21T14:16:51.890Z,17.77
2022-09-21T14:22:28.451Z,17.59
2022-09-21T14:27:35.247Z,17.49
2022-09-21T14:32:44.431Z,17.22
2022-09-21T14:37:52.044Z,17.38
2022-09-21T14:42:58.724Z,17.43
2022-09-21T14:48:09.569Z,17.49
2022-09-21T14:53:45.267Z,17.37
2022-09-21T14:59:00.799Z,17.65
2022-09-21T15:04:19.897Z,17.72
2022-09-21T15:10:02.905Z,17.77
2022-09-21T15:15:24.060Z,17.79
2022-09-21T15:20:28.420Z,17.74
2022-09-21T15:25:34.371Z,17.75
2022-09-21T15:30:45.796Z,17.64
2022-09-21T15:35:48.406Z,17.72
2022-09-21T15:40:51.211Z,17.70
2022-09-21T15:45:59.060Z,17.65
2022-09-21T15:51:07.559Z,17.44
2022-09-21T15:56:19.028Z,17.54
2022-09-21T16:01:23.708Z,17.44
2022-09-21T16:06:37.190Z,17.39
2022-09-21T16:11:39.750Z,17.35
2022-09-21T16:17:16.760Z,17.26
2022-09-21T16:22:24.271Z,17.20
2022-09-21T16:27:30.185Z,17.17
2022-09-21T16:32:34.212Z,17.09
2022-09-21T16:37:38.125Z,16.97
2022-09-21T16:42:44.143Z,16.70
2022-09-21T16:47:46.934Z,16.72
2022-09-21T16:52:51.982Z,16.17
2022-09-21T16:57:54.566Z,16.49
2022-09-21T17:02:57.269Z,16.38
2022-09-21T17:08:01.203Z,16.29
2022-09-21T17:13:06.183Z,16.21
2022-09-21T17:18:11.476Z,16.06
2022-09-21T17:23:15.608Z,15.96
2022-09-21T17:28:25.881Z,15.78
2022-09-21T17:33:29.042Z,15.64
2022-09-21T17:38:34.773Z,15.65
2022-09-21T17:43:46.405Z,15.57
2022-09-21T17:48:49.541Z,15.41
2022-09-21T17:53:54.072Z,15.34
2022-09-21T17:59:01.503Z,15.21
2022-09-21T18:04:04.967Z,15.12
2022-09-21T18:09:12.777Z,15.04
2022-09-21T18:14:28.484Z,14.88
2022-09-21T18:19:45.367Z,14.90
2022-09-21T18:24:51.135Z,14.89
2022-09-21T18:29:54.296Z,14.79
2022-09-21T18:35:10.447Z,14.62
2022-09-21T18:40:23.256Z,14.42
2022-09-21T18:45:29.306Z,14.46
2022-09-21T18:50:40.645Z,14.27
2022-09-21T18:55:45.418Z,14.15
2022-09-21T19:00:48.655Z,14.02
2022-09-21T19:06:08.147Z,14.06
2022-09-21T19:11:24.938Z,13.98
2022-09-21T19:16:33.874Z,13.81
2022-09-21T19:21:58.297Z,13.65
2022-09-21T19:27:20.711Z,13.73
2022-09-21T19:32:33.972Z,13.62
2022-09-21T19:37:38.410Z,13.59
2022-09-21T19:43:04.047Z,13.55
2022-09-21T19:48:12.395Z,13.19
2022-09-21T19:53:34.270Z,13.20
2022-09-21T19:58:57.311Z,13.02
2022-09-21T20:04:02.009Z,13.00
2022-09-21T20:09:14.525Z,12.58
2022-09-21T20:14:33.005Z,12.87
2022-09-21T20:19:47.151Z,12.80
2022-09-21T20:24:58.142Z,12.88
2022-09-21T20:30:02.467Z,12.86
2022-09-21T20:35:15.060Z,12.77
2022-09-21T20:40:17.788Z,12.69
2022-09-21T20:45:23.130Z,12.72
2022-09-21T20:50:26.529Z,12.70
2022-09-21T20:55:29.080Z,12.61
2022-09-21T21:00:47.056Z,12.35
2022-09-21T21:05:50.022Z,12.09
2022-09-21T21:10:56.495Z,12.09
2022-09-21T21:16:00.863Z,11.93
2022-09-21T21:21:05.522Z,12.01
2022-09-21T21:26:08.062Z,12.05
2022-09-21T21:31:16.167Z,12.09
2022-09-21T21:36:22.045Z,12.15
2022-09-21T21:41:24.686Z,12.11
2022-09-21T21:46:29.722Z,12.06
2022-09-21T21:51:32.656Z,12.00
2022-09-21T21:56:35.236Z,12.00
2022-09-21T22:01:40.104Z,11.83
2022-09-21T22:06:43.320Z,11.62
2022-09-21T22:11:46.432Z,11.73
2022-09-21T22:16:51.286Z,11.79
2022-09-21T22:21:54.842Z,11.74
2022-09-21T22:26:57.667Z,11.73
2022-09-21T22:32:01.999Z,11.65
2022-09-21T22:37:04.566Z,11.66
2022-09-21T22:42:07.326Z,11.59
2022-09-21T22:47:11.186Z,11.49
2022-09-21T22:52:13.714Z,11.49
2022-09-21T22:57:16.266Z,11.49
2022-09-21T23:02:20.160Z,11.44
2022-09-21T23:07:22.716Z,11.15
2022-09-21T23:12:25.274Z,11.27
2022-09-21T23:17:30.235Z,11.10
2022-09-21T23:22:32.772Z,11.05
2022-09-21T23:27:35.811Z,11.06
2022-09-21T23:32:39.831Z,10.99
2022-09-21T23:37:42.380Z,11.12
2022-09-21T23:42:44.925Z,11.06
2022-09-21T23:47:48.813Z,11.07
2022-09-21T23:52:51.376Z,10.98
2022-09-21T23:57:53.907Z,10.99
